Davella, Kentucky
Current Conditions -  °F | °C
As of 12:55 PM on Saturday 20 Dec 2014 (Local Time) from KSJS Reporting Station
Overcast Overcast  
Wind Chill: 34°   Ceiling: 7500
Heat Index: 34°   Visibility: 10mi
Dew Point: 27°   Wind: 3mph
Humidity: 76%   Direction: 270°W
Pressure: 30.22"   Gusts: NA
Location:  37.7829°N, 82.6033°W
Report Text: KSJS 201755Z AUTO 27003KT 10SM SCT042 OVC075 01/M03 A3022 RMK AO2 T00101028 10011 21026
Loading
Personal Weather Stations






























Interactive Weather Map New forecast layout! Learn more

10-Day Weather Forecast

Advertisements
Track Severe Weather on mobile